Time;durP1;ratioP1;P1;durP2;ratioP2;P2;SDS_P1;SDS_P2;PMS_P1;PMS_P2;Temp;Humidity;BMP_temperature;BMP_pressure;BME280_temperature;BME280_humidity;BME280_pressure;Samples;Min_cycle;Max_cycle;Signal;HPM_P1;HPM_P2
2022/09/09 00:02:23;;;;;;;5.28;2.83;;;;;;;14.55;100.00;100602.50;6297426;28;20058;-70
2022/09/09 00:05:32;;;;;;;4.95;3.08;;;;;;;14.50;100.00;100597.53;6296910;28;20048;-70
2022/09/09 00:08:46;;;;;;;4.03;2.75;;;;;;;14.47;100.00;100595.06;6297715;28;20082;-70
2022/09/09 00:11:52;;;;;;;4.13;2.78;;;;;;;14.42;100.00;100592.75;6296927;28;20048;-71
2022/09/09 00:14:58;;;;;;;3.95;2.58;;;;;;;14.39;100.00;100592.97;6296839;28;20510;-70
2022/09/09 00:18:14;;;;;;;6.55;3.15;;;;;;;14.35;100.00;100578.31;6297153;28;20049;-70
2022/09/09 00:21:17;;;;;;;3.78;2.92;;;;;;;14.32;100.00;100580.31;6296732;28;20082;-70
2022/09/09 00:24:28;;;;;;;3.42;2.47;;;;;;;14.30;100.00;100596.28;6296718;28;20044;-69
2022/09/09 00:27:38;;;;;;;3.17;2.40;;;;;;;14.24;100.00;100588.78;6296989;28;20059;-70
2022/09/09 00:30:41;;;;;;;2.90;2.47;;;;;;;14.24;100.00;100594.06;6296234;28;20070;-70
2022/09/09 00:33:44;;;;;;;2.83;2.20;;;;;;;14.20;100.00;100596.09;6296464;28;20177;-70
2022/09/09 00:36:48;;;;;;;2.38;1.92;;;;;;;14.20;100.00;100588.16;6296859;28;20427;-70
2022/09/09 00:39:54;;;;;;;5.50;2.53;;;;;;;14.18;100.00;100594.53;6296255;28;20432;-70
2022/09/09 00:43:13;;;;;;;4.28;2.00;;;;;;;14.18;100.00;100587.44;6296729;28;20054;-70
2022/09/09 00:46:39;;;;;;;3.40;2.10;;;;;;;14.16;100.00;100585.84;6296103;28;20044;-70
2022/09/09 00:49:54;;;;;;;3.40;1.90;;;;;;;14.14;100.00;100582.47;6296334;28;20101;-70
2022/09/09 00:53:06;;;;;;;4.40;2.17;;;;;;;14.16;100.00;100585.84;6296478;28;20110;-70
2022/09/09 00:56:14;;;;;;;3.35;2.00;;;;;;;14.14;100.00;100588.59;6295959;28;20388;-69
2022/09/09 00:59:29;;;;;;;2.30;1.42;;;;;;;14.17;100.00;100592.81;6296582;28;20052;-70
2022/09/09 01:02:37;;;;;;;2.97;1.60;;;;;;;14.21;100.00;100591.66;6295882;28;20052;-69
2022/09/09 01:05:47;;;;;;;5.45;1.60;;;;;;;14.25;100.00;100589.63;6296022;28;20048;-70
2022/09/09 01:09:08;;;;;;;6.38;1.38;;;;;;;14.26;100.00;100584.25;6296417;28;20083;-70
2022/09/09 01:12:15;;;;;;;2.17;1.52;;;;;;;14.30;100.00;100582.22;6296202;28;20049;-70
2022/09/09 01:15:22;;;;;;;2.70;1.45;;;;;;;14.30;100.00;100582.22;6295863;28;20048;-69
2022/09/09 01:18:28;;;;;;;4.68;1.65;;;;;;;14.30;100.00;100577.78;6296078;28;20055;-70
2022/09/09 01:21:40;;;;;;;4.00;1.40;;;;;;;14.35;100.00;100577.44;6295934;28;20496;-70
2022/09/09 01:24:49;;;;;;;2.13;1.30;;;;;;;14.32;100.00;100577.69;6295703;28;20178;-71
2022/09/09 01:27:55;;;;;;;1.98;1.15;;;;;;;14.33;100.00;100574.91;6296320;28;20045;-70
2022/09/09 01:30:58;;;;;;;2.88;1.30;;;;;;;14.34;100.00;100573.13;6295654;28;20835;-71
2022/09/09 01:33:59;;;;;;;1.52;1.13;;;;;;;14.36;100.00;100572.06;6295712;28;20055;-70
2022/09/09 01:37:05;;;;;;;1.33;1.05;;;;;;;14.38;100.00;100572.78;6295870;28;20049;-70
2022/09/09 01:40:08;;;;;;;1.55;1.23;;;;;;;14.41;100.00;100566.44;6295696;28;20562;-70
2022/09/09 01:43:11;;;;;;;1.85;1.15;;;;;;;14.41;100.00;100559.34;6297536;28;20603;-70
2022/09/09 01:46:14;;;;;;;2.00;1.00;;;;;;;14.40;100.00;100564.75;6300744;28;20052;-70
2022/09/09 01:49:17;;;;;;;1.27;1.00;;;;;;;14.41;100.00;100556.72;6300795;28;20059;-70
2022/09/09 01:52:18;;;;;;;6.30;1.10;;;;;;;14.40;100.00;100555.03;6300540;28;20075;-70
2022/09/09 01:55:29;;;;;;;1.38;1.10;;;;;;;14.40;100.00;100564.75;6300086;28;20057;-69
2022/09/09 01:58:45;;;;;;;2.25;1.20;;;;;;;14.37;100.00;100567.63;6300511;28;20415;-70
2022/09/09 02:01:58;;;;;;;1.50;1.30;;;;;;;14.39;100.00;100568.34;6300248;28;20056;-69
2022/09/09 02:05:18;;;;;;;1.15;0.90;;;;;;;14.36;100.00;100565.94;6296539;28;20047;-70
2022/09/09 02:08:24;;;;;;;1.75;1.10;;;;;;;14.34;100.00;100565.19;6300415;28;20044;-70
2022/09/09 02:11:28;;;;;;;3.08;1.30;;;;;;;14.37;100.00;100559.69;6289465;28;20052;-70
2022/09/09 02:14:37;;;;;;;4.22;1.10;;;;;;;14.38;100.00;100564.84;6274890;28;20055;-70
2022/09/09 02:17:39;;;;;;;3.75;1.02;;;;;;;14.36;100.00;100565.94;6275519;28;20049;-70
2022/09/09 02:20:43;;;;;;;1.13;0.98;;;;;;;14.33;100.00;100559.06;6294414;28;20060;-69
2022/09/09 02:23:47;;;;;;;1.15;0.93;;;;;;;14.27;100.00;100559.50;6299433;28;20048;-70
2022/09/09 02:26:52;;;;;;;1.35;1.00;;;;;;;14.25;100.00;100561.41;6299864;28;20051;-69
2022/09/09 02:30:00;;;;;;;1.15;1.05;;;;;;;14.20;100.00;100561.72;6299553;28;20424;-70
2022/09/09 02:33:06;;;;;;;1.83;1.23;;;;;;;14.18;100.00;100550.44;6299672;28;20056;-70
2022/09/09 02:36:11;;;;;;;1.45;1.10;;;;;;;14.16;100.00;100556.78;6299522;28;20139;-70
2022/09/09 02:39:14;;;;;;;0.70;0.70;;;;;;;14.11;100.00;100556.25;6299670;28;20056;-70
2022/09/09 02:42:15;;;;;;;1.67;0.82;;;;;;;14.07;100.00;100560.06;6299430;28;20124;-71
2022/09/09 02:45:22;;;;;;;1.70;1.10;;;;;;;14.08;100.00;100569.69;6298959;28;20074;-70
2022/09/09 02:48:30;;;;;;;4.55;1.08;;;;;;;14.04;100.00;100573.53;6299713;28;20131;-69
2022/09/09 02:51:38;;;;;;;2.10;1.33;;;;;;;14.02;100.00;100573.59;6299250;28;20415;-70
2022/09/09 02:54:40;;;;;;;4.80;1.30;;;;;;;14.01;100.00;100577.22;6298553;28;20055;-69
2022/09/09 02:57:45;;;;;;;2.97;1.45;;;;;;;14.03;100.00;100585.00;6299354;28;20053;-70
2022/09/09 03:00:50;;;;;;;0.68;0.68;;;;;;;14.02;100.00;100589.47;6298875;28;20080;-70
2022/09/09 03:03:52;;;;;;;1.48;1.05;;;;;;;14.05;100.00;100583.97;6364410;22;20061;-69
2022/09/09 03:06:53;;;;;;;2.85;1.00;;;;;;;14.03;100.00;100587.66;6249508;28;20065;-70
2022/09/09 03:09:55;;;;;;;0.82;0.82;;;;;;;14.01;100.00;100589.59;6268527;28;20048;-70
2022/09/09 03:12:56;;;;;;;1.30;0.90;;;;;;;14.01;100.00;100601.00;6274134;28;20055;-69
2022/09/09 03:15:59;;;;;;;2.53;0.80;;;;;;;14.02;100.00;100594.75;6273428;28;20060;-70
2022/09/09 03:19:01;;;;;;;2.20;1.00;;;;;;;14.03;100.00;100593.78;6274139;28;20059;-69
2022/09/09 03:22:04;;;;;;;0.80;0.80;;;;;;;14.03;100.00;100590.31;6273401;28;20412;-68
2022/09/09 03:25:06;;;;;;;0.95;0.80;;;;;;;14.05;100.00;100602.47;6273376;28;20155;-69
2022/09/09 03:28:08;;;;;;;0.82;0.82;;;;;;;14.08;100.00;100601.38;6273526;28;20511;-70
2022/09/09 03:31:11;;;;;;;1.65;0.93;;;;;;;14.09;100.00;100598.66;6273301;28;20424;-69
2022/09/09 03:34:13;;;;;;;1.40;0.60;;;;;;;14.05;100.00;100601.63;6272888;28;20063;-70
2022/09/09 03:37:14;;;;;;;1.77;0.80;;;;;;;14.04;100.00;100590.22;6273769;28;20055;-70
2022/09/09 03:40:16;;;;;;;1.35;0.90;;;;;;;14.06;100.00;100596.22;6273026;28;20052;-70
2022/09/09 03:43:17;;;;;;;1.05;0.95;;;;;;;14.01;100.00;100587.78;6273194;28;20056;-69
2022/09/09 03:46:20;;;;;;;1.17;0.90;;;;;;;14.02;100.00;100588.63;6272931;28;20053;-70
2022/09/09 03:49:22;;;;;;;2.03;0.80;;;;;;;13.98;100.00;100587.13;6273170;28;20056;-69
2022/09/09 03:52:26;;;;;;;1.15;0.70;;;;;;;13.98;100.00;100595.91;6273003;28;20048;-68
2022/09/09 03:55:27;;;;;;;0.80;0.80;;;;;;;13.96;100.00;100590.75;6272484;28;20053;-70
2022/09/09 03:58:29;;;;;;;2.10;1.00;;;;;;;13.91;100.00;100584.94;6273218;28;20061;-69
2022/09/09 04:01:32;;;;;;;1.40;0.88;;;;;;;13.87;100.00;100585.25;6272482;28;20051;-70
2022/09/09 04:04:33;;;;;;;1.38;0.80;;;;;;;13.87;100.00;100587.91;6271943;28;20049;-70
2022/09/09 04:07:34;;;;;;;1.05;0.70;;;;;;;13.88;100.00;100584.31;6272112;28;20451;-70
2022/09/09 04:10:37;;;;;;;1.48;0.90;;;;;;;13.84;100.00;100582.81;6272643;28;20048;-70
2022/09/09 04:13:39;;;;;;;1.27;0.88;;;;;;;13.84;100.00;100585.47;6272685;28;20049;-70
2022/09/09 04:16:44;;;;;;;1.67;0.90;;;;;;;13.82;100.00;100590.03;6272241;28;20052;-69
2022/09/09 04:19:46;;;;;;;1.15;1.05;;;;;;;13.78;100.00;100586.75;6272203;28;20049;-70
2022/09/09 04:22:47;;;;;;;1.23;1.10;;;;;;;13.75;100.00;100584.31;6272409;28;20053;-70
2022/09/09 04:25:50;;;;;;;2.05;1.27;;;;;;;13.75;100.00;100586.94;6271928;28;20052;-69
2022/09/09 04:28:52;;;;;;;1.00;0.60;;;;;;;13.74;100.00;100592.34;6272343;28;20049;-70
2022/09/09 04:31:54;;;;;;;0.95;0.73;;;;;;;13.72;100.00;100589.81;6271933;28;20531;-69
2022/09/09 04:34:56;;;;;;;1.25;1.02;;;;;;;13.73;100.00;100588.84;6271690;28;20052;-70
2022/09/09 04:37:57;;;;;;;0.82;0.82;;;;;;;13.73;100.00;100594.13;6272179;28;20511;-70
2022/09/09 04:40:58;;;;;;;2.80;0.90;;;;;;;13.76;100.00;100593.91;6271779;28;20056;-70
2022/09/09 04:44:00;;;;;;;0.90;0.70;;;;;;;13.82;100.00;100601.44;6271478;28;20090;-70
2022/09/09 04:47:03;;;;;;;2.53;0.90;;;;;;;13.81;100.00;100594.47;6272068;28;20056;-70
2022/09/09 04:50:05;;;;;;;1.05;0.90;;;;;;;13.83;100.00;100597.00;6271302;28;20048;-70
2022/09/09 04:53:06;;;;;;;1.83;0.82;;;;;;;13.83;100.00;100604.91;6271772;28;20060;-70
2022/09/09 04:56:11;;;;;;;1.33;0.60;;;;;;;13.81;100.00;100602.38;6271291;28;20048;-69
2022/09/09 04:59:12;;;;;;;1.45;0.93;;;;;;;13.82;100.00;100605.88;6271800;28;20094;-70
2022/09/09 05:02:15;;;;;;;1.33;0.90;;;;;;;13.80;100.00;100599.84;6271240;28;20492;-70
2022/09/09 05:05:16;;;;;;;0.60;0.60;;;;;;;13.81;100.00;100610.31;6270914;28;20115;-69
2022/09/09 05:08:17;;;;;;;1.15;0.98;;;;;;;13.80;100.00;100608.59;6271553;28;20060;-70
2022/09/09 05:11:23;;;;;;;1.95;0.70;;;;;;;13.82;100.00;100611.16;6271062;28;20427;-70
2022/09/09 05:14:24;;;;;;;1.95;1.02;;;;;;;13.78;100.00;100609.66;6270870;28;20053;-69
2022/09/09 05:17:27;;;;;;;0.82;0.80;;;;;;;13.77;100.00;100613.28;6271444;28;20052;-70
2022/09/09 05:20:29;;;;;;;1.63;1.30;;;;;;;13.80;100.00;100618.31;6271041;28;20049;-70
2022/09/09 05:23:30;;;;;;;1.02;0.85;;;;;;;13.79;100.00;100621.91;6271012;28;20049;-70
2022/09/09 05:26:32;;;;;;;1.67;1.05;;;;;;;13.80;100.00;100616.53;6270991;28;20052;-70
2022/09/09 05:29:34;;;;;;;1.00;0.80;;;;;;;13.81;100.00;100615.59;6271054;28;20429;-70
2022/09/09 05:32:36;;;;;;;0.80;0.80;;;;;;;13.83;100.00;100616.31;6270017;28;20037;-69
2022/09/09 05:35:38;;;;;;;2.83;0.90;;;;;;;13.86;100.00;100617.91;6268891;28;20045;-70
2022/09/09 05:38:40;;;;;;;2.88;1.00;;;;;;;13.87;100.00;100616.97;6269605;28;20056;-69
2022/09/09 05:41:41;;;;;;;0.90;0.70;;;;;;;13.85;100.00;100619.72;6268846;28;20134;-70
2022/09/09 05:44:44;;;;;;;1.08;0.88;;;;;;;13.87;100.00;100625.72;6268892;28;20048;-70
2022/09/09 05:47:53;;;;;;;1.10;1.00;;;;;;;13.91;100.00;100636.94;6269322;28;20044;-70
2022/09/09 05:50:54;;;;;;;5.10;0.95;;;;;;;13.91;100.00;100629.84;6269066;28;20564;-70
2022/09/09 05:53:58;;;;;;;1.50;0.90;;;;;;;13.96;100.00;100638.31;6268766;28;20045;-70
2022/09/09 05:56:59;;;;;;;1.10;1.00;;;;;;;14.02;100.00;100638.81;6266613;28;20060;-70
2022/09/09 06:00:01;;;;;;;3.03;1.08;;;;;;;14.09;100.00;100642.75;6268746;28;20057;-70
2022/09/09 06:03:03;;;;;;;0.88;0.73;;;;;;;14.13;100.00;100636.28;6268890;28;20048;-70
2022/09/09 06:06:07;;;;;;;0.70;0.70;;;;;;;14.19;100.00;100641.13;6268582;28;20048;-70
2022/09/09 06:09:10;;;;;;;1.25;0.90;;;;;;;14.24;100.00;100635.53;6269936;28;20049;-70
2022/09/09 06:12:11;;;;;;;0.80;0.70;;;;;;;14.27;100.00;100630.88;6270447;28;20045;-70
2022/09/09 06:15:12;;;;;;;1.52;0.77;;;;;;;14.30;100.00;100624.50;6270199;28;20045;-69
2022/09/09 06:18:17;;;;;;;1.90;0.80;;;;;;;14.31;100.00;100637.66;6270590;28;20441;-70
2022/09/09 06:21:21;;;;;;;0.70;0.70;;;;;;;14.33;100.00;100641.00;6270257;28;20048;-70
2022/09/09 06:24:23;;;;;;;1.38;0.57;;;;;;;14.37;100.00;100634.56;6270166;28;20132;-70
2022/09/09 06:27:24;;;;;;;1.00;0.90;;;;;;;14.43;100.00;100631.47;6270559;28;20052;-70
2022/09/09 06:30:25;;;;;;;0.70;0.60;;;;;;;14.52;100.00;100632.63;6273993;28;20059;-69
2022/09/09 06:33:34;;;;;;;1.95;1.00;;;;;;;14.57;100.00;100630.50;6275041;28;20048;-70
2022/09/09 06:36:37;;;;;;;1.35;0.95;;;;;;;14.61;100.00;100631.97;6274754;28;20077;-69
2022/09/09 06:39:39;;;;;;;1.08;0.95;;;;;;;14.66;100.00;100631.66;6274717;28;20052;-69
2022/09/09 06:42:40;;;;;;;2.00;1.27;;;;;;;14.70;100.00;100633.97;6274860;28;20412;-70
2022/09/09 06:45:41;;;;;;;1.58;0.93;;;;;;;14.76;100.00;100626.53;6274352;28;20044;-69
2022/09/09 06:48:45;;;;;;;2.03;1.08;;;;;;;14.79;100.00;100629.81;6274656;28;20052;-70
2022/09/09 06:51:46;;;;;;;1.65;0.80;;;;;;;14.77;100.00;100623.78;6274395;28;20081;-70
2022/09/09 06:54:47;;;;;;;9.40;1.88;;;;;;;14.77;100.00;100626.44;6273976;28;20045;-69
2022/09/09 06:57:50;;;;;;;1.20;0.80;;;;;;;14.76;100.00;100624.75;6274532;28;20056;-70
2022/09/09 07:00:51;;;;;;;3.97;0.73;;;;;;;14.77;100.00;100628.25;6273998;28;20068;-70
2022/09/09 07:03:57;;;;;;;2.15;0.77;;;;;;;14.76;100.00;100629.19;6273696;28;20049;-70
2022/09/09 07:06:58;;;;;;;2.90;1.25;;;;;;;14.77;100.00;100630.88;6274371;28;20190;-70
2022/09/09 07:10:00;;;;;;;1.50;0.80;;;;;;;14.76;100.00;100622.13;6274052;28;20092;-68
2022/09/09 07:13:02;;;;;;;2.13;1.08;;;;;;;14.80;100.00;100615.63;6274188;28;20073;-70
2022/09/09 07:16:05;;;;;;;1.10;0.80;;;;;;;14.84;100.00;100622.38;6273725;28;20106;-70
2022/09/09 07:19:08;;;;;;;1.83;1.15;;;;;;;14.84;100.00;100626.81;6274055;28;20084;-69
2022/09/09 07:22:10;;;;;;;1.60;0.85;;;;;;;14.86;100.00;100625.75;6273760;28;20052;-70
2022/09/09 07:25:12;;;;;;;1.88;1.17;;;;;;;14.89;100.00;100629.97;6273415;28;20049;-70
2022/09/09 07:28:13;;;;;;;3.13;0.70;;;;;;;14.91;100.00;100628.06;6273574;28;20045;-70
2022/09/09 07:31:16;;;;;;;3.15;1.00;;;;;;;14.95;100.00;100624.25;6273461;28;20053;-70
2022/09/09 07:34:19;;;;;;;0.93;0.80;;;;;;;14.96;100.00;100621.47;6272876;28;20124;-70
2022/09/09 07:37:20;;;;;;;1.92;1.48;;;;;;;15.00;100.00;100634.50;6273677;28;20053;-70
2022/09/09 07:40:21;;;;;;;1.20;0.80;;;;;;;15.04;100.00;100631.50;6272920;28;20492;-70
2022/09/09 07:43:26;;;;;;;1.50;1.13;;;;;;;15.07;100.00;100636.56;6273603;28;20051;-69
2022/09/09 07:46:28;;;;;;;1.92;0.85;;;;;;;15.14;100.00;100640.44;6272837;28;20048;-70
2022/09/09 07:49:31;;;;;;;1.80;0.80;;;;;;;15.18;100.00;100647.22;6273348;28;20060;-69
2022/09/09 07:52:34;;;;;;;1.05;0.90;;;;;;;15.19;100.00;100648.06;6272947;28;20137;-70
2022/09/09 07:55:36;;;;;;;2.08;0.63;;;;;;;15.25;100.00;100647.59;6272714;28;20496;-69
2022/09/09 07:58:37;;;;;;;3.72;0.80;;;;;;;15.31;100.00;100646.31;6273058;28;20048;-70
2022/09/09 08:01:40;;;;;;;1.02;0.80;;;;;;;15.42;100.00;100644.53;6272476;28;20492;-70
2022/09/09 08:04:43;;;;;;;7.40;1.30;;;;;;;15.52;100.00;100649.97;6272234;28;20041;-70
2022/09/09 08:07:45;;;;;;;1.02;0.82;;;;;;;15.62;100.00;100645.66;6272661;28;20052;-70
2022/09/09 08:10:46;;;;;;;3.50;0.90;;;;;;;15.76;100.00;100647.31;6272287;28;20409;-70
2022/09/09 08:13:48;;;;;;;1.70;0.85;;;;;;;15.88;100.00;100649.00;6271958;28;20049;-70
2022/09/09 08:16:50;;;;;;;0.73;0.70;;;;;;;16.05;100.00;100653.00;6272748;28;20045;-70
2022/09/09 08:19:54;;;;;;;1.05;0.80;;;;;;;16.21;100.00;100644.69;6272051;28;20532;-70
2022/09/09 08:22:56;;;;;;;0.70;0.70;;;;;;;16.30;100.00;100645.78;6272359;28;20045;-70
2022/09/09 08:26:05;;;;;;;2.55;0.93;;;;;;;16.37;100.00;100652.28;6271826;28;20045;-69
2022/09/09 08:29:07;;;;;;;4.10;0.80;;;;;;;16.48;100.00;100647.81;6272566;28;20055;-71
2022/09/09 08:32:09;;;;;;;0.95;0.80;;;;;;;16.55;100.00;100648.16;6271922;28;20500;-70
2022/09/09 08:35:11;;;;;;;0.98;0.70;;;;;;;16.63;100.00;100652.88;6271863;28;20045;-71
2022/09/09 08:38:14;;;;;;;6.25;0.88;;;;;;;16.66;100.00;100650.78;6272269;28;20060;-70
2022/09/09 08:41:35;;;;;;;3.95;1.10;;;;;;;16.78;100.00;100654.31;6271694;28;20059;-70
2022/09/09 08:44:50;;;;;;;2.92;0.60;;;;;;;16.89;100.00;100656.09;6271571;28;20045;-70
2022/09/09 08:48:14;;;;;;;1.08;0.50;;;;;;;16.97;100.00;100659.81;6272129;28;20053;-70
2022/09/09 08:51:17;;;;;;;1.95;0.82;;;;;;;17.04;100.00;100660.16;6266535;28;20516;-71
2022/09/09 08:54:18;;;;;;;0.85;0.80;;;;;;;17.05;100.00;100664.50;6269392;28;20044;-71
2022/09/09 08:57:26;;;;;;;1.30;0.70;;;;;;;17.07;100.00;100667.03;6269403;28;20055;-71
2022/09/09 09:00:37;;;;;;;3.33;1.52;;;;;;;17.17;100.00;100660.84;6270857;28;20056;-69
2022/09/09 09:03:45;;;;;;;1.73;1.10;;;;;;;17.28;100.00;100661.78;6269191;28;20045;-71
2022/09/09 09:06:55;;;;;;;1.63;0.73;;;;;;;17.33;100.00;100664.88;6276384;22;20048;-71
2022/09/09 09:10:05;;;;;;;1.85;1.08;;;;;;;17.40;100.00;100666.91;6270693;28;20045;-78
2022/09/09 09:13:13;;;;;;;3.45;1.10;;;;;;;17.49;100.00;100668.81;6270258;28;20049;-70
2022/09/09 09:16:24;;;;;;;1.33;0.90;;;;;;;17.54;100.00;100671.06;6264785;28;20044;-71
2022/09/09 09:19:28;;;;;;;2.85;0.60;;;;;;;17.59;100.00;100670.69;6271172;28;20049;-71
2022/09/09 09:22:38;;;;;;;2.75;1.00;;;;;;;17.71;100.00;100662.53;6271115;28;20140;-71
2022/09/09 09:25:44;;;;;;;4.00;0.88;;;;;;;17.88;100.00;100670.91;6270824;28;20045;-71
2022/09/09 09:28:46;;;;;;;3.42;1.08;;;;;;;17.96;100.00;100671.94;6271464;28;20049;-71
2022/09/09 09:31:52;;;;;;;1.02;0.70;;;;;;;18.06;100.00;100657.84;6270827;28;20053;-69
2022/09/09 09:34:56;;;;;;;4.05;0.88;;;;;;;18.13;100.00;100656.34;6270909;28;20041;-69
2022/09/09 09:38:00;;;;;;;3.58;1.00;;;;;;;18.23;100.00;100663.41;6271172;28;20045;-69
2022/09/09 09:41:02;;;;;;;3.35;0.70;;;;;;;18.25;100.00;100663.25;6270914;28;20049;-69
2022/09/09 09:44:04;;;;;;;2.22;0.90;;;;;;;18.28;100.00;100660.34;6269873;28;20052;-69
2022/09/09 09:47:08;;;;;;;1.23;0.75;;;;;;;18.30;100.00;100652.22;6268477;28;20040;-69
2022/09/09 09:50:18;;;;;;;4.00;1.20;;;;;;;18.39;100.00;100651.41;6267400;28;20056;-70
2022/09/09 09:53:26;;;;;;;3.92;1.27;;;;;;;18.56;100.00;100655.25;6263971;28;20424;-71
2022/09/09 09:56:29;;;;;;;1.15;0.73;;;;;;;18.68;100.00;100656.84;6266968;28;20056;-71
2022/09/09 09:59:35;;;;;;;1.40;0.80;;;;;;;18.75;100.00;100650.00;6268190;28;20048;-71
2022/09/09 10:02:40;;;;;;;2.88;1.02;;;;;;;18.83;100.00;100644.00;6270235;28;20045;-71
2022/09/09 10:05:46;;;;;;;1.42;0.82;;;;;;;18.87;100.00;100643.59;6274764;28;20045;-71
2022/09/09 10:08:49;;;;;;;3.15;0.90;;;;;;;18.86;100.00;100647.22;6270150;28;20132;-71
2022/09/09 10:12:00;;;;;;;5.32;1.15;;;;;;;18.84;100.00;100643.84;6274859;28;20049;-71
2022/09/09 10:15:08;;;;;;;2.55;1.05;;;;;;;18.81;100.00;100635.31;6270629;28;20045;-71
2022/09/09 10:18:33;;;;;;;0.63;0.63;;;;;;;18.82;100.00;100650.31;6275412;28;20055;-71
2022/09/09 10:21:57;;;;;;;2.88;0.82;;;;;;;18.80;100.00;100650.44;6269574;28;20048;-70
2022/09/09 10:25:26;;;;;;;0.70;0.60;;;;;;;18.79;100.00;100655.91;6268988;28;20539;-72
2022/09/09 10:28:40;;;;;;;0.50;0.50;;;;;;;18.70;100.00;100657.56;6272462;28;20520;-71
2022/09/09 10:31:52;;;;;;;1.00;0.70;;;;;;;18.65;100.00;100655.28;6274560;28;20098;-72
2022/09/09 10:34:58;;;;;;;0.70;0.70;;;;;;;18.66;100.00;100659.63;6274606;28;20053;-71
2022/09/09 10:38:16;;;;;;;1.45;0.70;;;;;;;18.73;100.00;100658.13;6275313;28;20049;-72
2022/09/09 10:41:34;;;;;;;5.55;1.75;;;;;;;18.73;99.72;100662.63;6274716;28;20060;-71
2022/09/09 10:45:00;;;;;;;3.85;2.40;;;;;;;18.79;100.00;100655.91;6273775;28;20045;-72
2022/09/09 10:48:16;;;;;;;1.95;1.10;;;;;;;18.94;100.00;100643.84;6274886;28;20049;-71
2022/09/09 10:51:24;;;;;;;2.28;1.00;;;;;;;19.18;99.02;100633.66;6274247;28;20049;-71
2022/09/09 10:54:37;;;;;;;1.52;0.90;;;;;;;19.37;92.16;100638.13;6273860;28;20064;-71
2022/09/09 10:57:44;;;;;;;3.50;0.73;;;;;;;19.26;93.38;100635.63;6274372;28;20534;-72
2022/09/09 11:00:48;;;;;;;4.25;1.00;;;;;;;19.15;92.74;100630.44;6274168;28;20053;-72
2022/09/09 11:03:55;;;;;;;1.42;0.57;;;;;;;19.08;96.78;100639.97;6273412;28;20045;-71
2022/09/09 11:06:56;;;;;;;5.18;1.50;;;;;;;18.98;96.96;100640.78;6274010;28;20052;-72
2022/09/09 11:10:06;;;;;;;0.80;0.57;;;;;;;18.84;96.07;100641.19;6260957;28;20051;-69
2022/09/09 11:13:12;;;;;;;;;;;;;;;18.78;98.56;100651.56;6273842;28;20530;-70
2022/09/09 11:16:22;;;;;;;2.38;0.80;;;;;;;18.67;99.04;100644.50;6272799;28;20439;-71
2022/09/09 11:19:31;;;;;;;1.02;0.70;;;;;;;18.60;97.99;100646.03;6269437;28;20056;-70
2022/09/09 11:22:36;;;;;;;1.75;0.70;;;;;;;18.58;98.15;100640.00;6273014;28;20493;-71
2022/09/09 11:25:42;;;;;;;2.55;0.90;;;;;;;18.49;100.00;100661.13;6273512;28;20048;-72
2022/09/09 11:29:02;;;;;;;3.75;1.55;;;;;;;18.30;100.00;100663.69;6273366;28;20393;-71
2022/09/09 11:32:19;;;;;;;5.88;1.00;;;;;;;18.05;100.00;100677.44;6269262;28;20405;-70
2022/09/09 11:35:32;;;;;;;0.70;0.60;;;;;;;17.92;100.00;100697.09;6261076;28;20053;-71
2022/09/09 11:38:42;;;;;;;2.13;0.80;;;;;;;17.72;100.00;100696.09;6273083;28;20136;-71
2022/09/09 11:41:44;;;;;;;0.82;0.70;;;;;;;17.59;100.00;100684.81;6261312;28;20425;-70
2022/09/09 11:44:47;;;;;;;0.75;0.70;;;;;;;17.50;100.00;100683.75;6248005;28;20160;-72
2022/09/09 11:47:56;;;;;;;3.45;0.80;;;;;;;17.43;100.00;100679.91;6259013;28;20526;-73
2022/09/09 11:51:00;;;;;;;4.18;0.95;;;;;;;17.37;100.00;100677.78;6269624;28;20048;-75
2022/09/09 11:54:04;;;;;;;2.03;0.70;;;;;;;17.39;100.00;100677.66;6248236;28;20053;-74
2022/09/09 11:57:24;;;;;;;0.98;0.70;;;;;;;17.38;100.00;100676.81;6259221;28;20168;-75
2022/09/09 12:00:37;;;;;;;1.63;0.80;;;;;;;17.38;100.00;100674.16;6271905;28;20515;-75
2022/09/09 12:03:45;;;;;;;0.60;0.60;;;;;;;17.43;100.00;100684.41;6272239;28;20049;-75
2022/09/09 12:06:51;;;;;;;2.35;0.65;;;;;;;17.46;100.00;100685.00;6272803;28;20083;-75
2022/09/09 12:09:56;;;;;;;0.55;0.55;;;;;;;17.56;100.00;100678.91;6272168;28;20805;-71
2022/09/09 12:13:09;;;;;;;0.93;0.60;;;;;;;17.72;100.00;100685.47;6273059;28;20049;-73
2022/09/09 12:16:32;;;;;;;2.35;0.85;;;;;;;17.80;100.00;100676.03;6271902;28;20419;-72
2022/09/09 12:19:34;;;;;;;4.03;0.60;;;;;;;17.86;100.00;100663.06;6272199;28;20481;-72
2022/09/09 12:22:44;;;;;;;1.13;0.50;;;;;;;17.90;100.00;100663.66;6271902;28;20053;-72
2022/09/09 12:26:00;;;;;;;0.60;0.60;;;;;;;17.95;100.00;100667.59;6271452;28;20052;-71
2022/09/09 12:29:16;;;;;;;1.33;0.65;;;;;;;18.00;100.00;100668.03;6268294;28;20442;-71
2022/09/09 12:32:24;;;;;;;3.33;0.85;;;;;;;18.06;100.00;100648.03;6270780;28;20056;-71
2022/09/09 12:35:30;;;;;;;0.88;0.60;;;;;;;18.18;100.00;100652.31;6271313;28;20049;-71
2022/09/09 12:38:35;;;;;;;1.17;0.60;;;;;;;18.49;100.00;100653.13;6272140;28;20049;-71
2022/09/09 12:41:37;;;;;;;1.10;0.80;;;;;;;18.92;100.00;100646.66;6271159;28;20056;-72
2022/09/09 12:44:38;;;;;;;0.60;0.40;;;;;;;19.36;100.00;100633.81;6271705;28;20056;-71
2022/09/09 12:47:47;;;;;;;2.58;0.70;;;;;;;19.83;100.00;100627.72;6271576;28;20041;-71
2022/09/09 12:50:51;;;;;;;1.33;0.43;;;;;;;20.37;100.00;100618.94;6271419;28;20052;-73
2022/09/09 12:53:52;;;;;;;0.77;0.50;;;;;;;20.81;99.69;100608.47;6268173;28;20049;-72
2022/09/09 12:56:54;;;;;;;2.38;0.80;;;;;;;21.07;94.85;100610.34;6265895;28;20048;-72
2022/09/09 13:00:10;;;;;;;0.65;0.50;;;;;;;21.48;94.32;100614.25;6266685;28;20049;-71
2022/09/09 13:03:18;;;;;;;2.60;0.52;;;;;;;22.03;93.27;100606.75;6270646;28;20393;-71
2022/09/09 13:06:23;;;;;;;1.40;0.47;;;;;;;22.22;76.33;100607.53;6268624;28;20041;-72
2022/09/09 13:09:24;;;;;;;0.60;0.28;;;;;;;22.37;74.73;100615.78;6270514;28;20442;-71
2022/09/09 13:12:26;;;;;;;3.42;0.43;;;;;;;22.69;77.80;100602.50;6270813;28;20448;-72
2022/09/09 13:15:30;;;;;;;1.60;0.50;;;;;;;22.97;77.55;100597.72;6266110;28;20045;-72
2022/09/09 13:18:35;;;;;;;5.40;0.60;;;;;;;23.25;75.43;100595.53;6270002;28;20052;-72
2022/09/09 13:21:38;;;;;;;1.60;0.30;;;;;;;23.02;70.22;100591.84;6265157;28;20052;-71
2022/09/09 13:24:39;;;;;;;2.67;0.63;;;;;;;22.85;71.56;100600.88;6260293;28;20072;-72
2022/09/09 13:27:43;;;;;;;0.60;0.30;;;;;;;23.05;69.62;100604.94;6267717;28;20090;-72
2022/09/09 13:30:44;;;;;;;0.73;0.28;;;;;;;23.32;71.25;100584.16;6270610;28;20049;-71
2022/09/09 13:33:47;;;;;;;0.77;0.45;;;;;;;23.39;69.77;100582.47;6270602;28;20083;-72
2022/09/09 13:36:49;;;;;;;3.08;0.55;;;;;;;23.24;71.14;100588.50;6269010;28;20045;-71
2022/09/09 13:39:53;;;;;;;0.90;0.60;;;;;;;22.97;74.69;100594.19;6266064;28;20721;-72
2022/09/09 13:42:56;;;;;;;0.75;0.30;;;;;;;23.20;73.76;100587.16;6274970;28;20094;-72
2022/09/09 13:46:00;;;;;;;2.13;0.47;;;;;;;23.20;70.31;100591.69;6272204;28;20041;-72
2022/09/09 13:49:20;;;;;;;1.27;0.20;;;;;;;22.72;69.76;100585.25;6275724;28;20049;-72
2022/09/09 13:52:22;;;;;;;0.60;0.40;;;;;;;22.68;73.66;100578.56;6275463;28;20148;-71
2022/09/09 13:55:24;;;;;;;1.40;0.38;;;;;;;22.52;75.42;100574.81;6275383;28;20057;-72
2022/09/09 13:58:26;;;;;;;1.40;0.32;;;;;;;22.65;75.37;100566.31;6265804;28;20046;-72
2022/09/09 14:01:28;;;;;;;1.98;0.47;;;;;;;22.89;72.12;100564.66;6270377;28;20069;-72
2022/09/09 14:04:31;;;;;;;0.52;0.25;;;;;;;22.65;73.79;100560.97;6267531;28;20053;-72
2022/09/09 14:07:32;;;;;;;1.50;0.60;;;;;;;22.36;73.86;100560.56;6275410;28;20049;-72
2022/09/09 14:10:36;;;;;;;0.80;0.35;;;;;;;22.45;73.57;100555.06;6273356;28;20191;-72
2022/09/09 14:13:38;;;;;;;2.72;0.55;;;;;;;22.83;74.51;100565.34;6275195;28;20427;-72
2022/09/09 14:16:39;;;;;;;1.75;0.38;;;;;;;23.32;71.63;100558.19;6275153;28;20049;-72